sensor_id;sensor_type;location;lat;lon;timestamp;temperature;humidity
40151;DHT22;25866;52.420;10.640;2022-08-11T00:00:12;17.60;95.30
40151;DHT22;25866;52.420;10.640;2022-08-11T00:02:57;17.60;95.40
40151;DHT22;25866;52.420;10.640;2022-08-11T00:05:28;17.60;95.50
40151;DHT22;25866;52.420;10.640;2022-08-11T00:07:56;17.50;95.60
40151;DHT22;25866;52.420;10.640;2022-08-11T00:10:25;17.50;95.50
40151;DHT22;25866;52.420;10.640;2022-08-11T00:12:54;17.40;95.40
40151;DHT22;25866;52.420;10.640;2022-08-11T00:15:22;17.40;95.60
40151;DHT22;25866;52.420;10.640;2022-08-11T00:17:49;17.50;95.50
40151;DHT22;25866;52.420;10.640;2022-08-11T00:20:21;17.40;95.50
40151;DHT22;25866;52.420;10.640;2022-08-11T00:22:47;17.40;95.90
40151;DHT22;25866;52.420;10.640;2022-08-11T00:25:19;17.30;96.10
40151;DHT22;25866;52.420;10.640;2022-08-11T00:27:47;17.20;96.40
40151;DHT22;25866;52.420;10.640;2022-08-11T00:30:14;17.00;96.60
40151;DHT22;25866;52.420;10.640;2022-08-11T00:32:43;17.00;96.90
40151;DHT22;25866;52.420;10.640;2022-08-11T00:35:14;16.90;97.20
40151;DHT22;25866;52.420;10.640;2022-08-11T00:37:47;16.90;96.90
40151;DHT22;25866;52.420;10.640;2022-08-11T00:40:20;16.90;96.90
40151;DHT22;25866;52.420;10.640;2022-08-11T00:43:19;16.90;97.00
40151;DHT22;25866;52.420;10.640;2022-08-11T00:46:13;16.90;97.10
40151;DHT22;25866;52.420;10.640;2022-08-11T00:51:51;16.80;96.90
40151;DHT22;25866;52.420;10.640;2022-08-11T00:57:36;16.80;97.20
40151;DHT22;25866;52.420;10.640;2022-08-11T01:05:43;16.60;97.60
40151;DHT22;25866;52.420;10.640;2022-08-11T01:20:07;16.60;97.60
40151;DHT22;25866;52.420;10.640;2022-08-11T01:25:38;16.60;97.50
40151;DHT22;25866;52.420;10.640;2022-08-11T01:31:21;16.60;97.60
40151;DHT22;25866;52.420;10.640;2022-08-11T01:48:01;16.30;97.80
40151;DHT22;25866;52.420;10.640;2022-08-11T01:51:02;16.30;98.00
40151;DHT22;25866;52.420;10.640;2022-08-11T01:53:37;16.20;97.90
40151;DHT22;25866;52.420;10.640;2022-08-11T02:06:54;16.10;98.20
40151;DHT22;25866;52.420;10.640;2022-08-11T02:18:49;16.00;98.60
40151;DHT22;25866;52.420;10.640;2022-08-11T02:20:57;16.00;98.50
40151;DHT22;25866;52.420;10.640;2022-08-11T02:23:50;16.00;98.50
40151;DHT22;25866;52.420;10.640;2022-08-11T02:26:27;16.00;99.00
40151;DHT22;25866;52.420;10.640;2022-08-11T02:40:07;15.80;99.40
40151;DHT22;25866;52.420;10.640;2022-08-11T02:43:00;15.80;99.30
40151;DHT22;25866;52.420;10.640;2022-08-11T02:45:44;15.80;99.60
40151;DHT22;25866;52.420;10.640;2022-08-11T02:51:26;15.60;99.80
40151;DHT22;25866;52.420;10.640;2022-08-11T02:54:20;15.60;99.80
40151;DHT22;25866;52.420;10.640;2022-08-11T03:06:10;15.50;99.40
40151;DHT22;25866;52.420;10.640;2022-08-11T03:08:45;15.50;99.50
40151;DHT22;25866;52.420;10.640;2022-08-11T03:14:47;15.40;99.90
40151;DHT22;25866;52.420;10.640;2022-08-11T03:20:37;15.20;99.90
40151;DHT22;25866;52.420;10.640;2022-08-11T03:23:30;15.20;99.90
40151;DHT22;25866;52.420;10.640;2022-08-11T03:26:06;15.30;99.90
40151;DHT22;25866;52.420;10.640;2022-08-11T03:28:58;15.10;99.90
40151;DHT22;25866;52.420;10.640;2022-08-11T03:34:44;14.90;99.90
40151;DHT22;25866;52.420;10.640;2022-08-11T03:37:47;15.00;99.90
40151;DHT22;25866;52.420;10.640;2022-08-11T03:40:37;14.90;99.90
40151;DHT22;25866;52.420;10.640;2022-08-11T03:44:05;14.90;99.90
40151;DHT22;25866;52.420;10.640;2022-08-11T03:47:02;14.90;99.90
40151;DHT22;25866;52.420;10.640;2022-08-11T03:49:44;14.80;99.90
40151;DHT22;25866;52.420;10.640;2022-08-11T03:55:29;14.80;99.90
40151;DHT22;25866;52.420;10.640;2022-08-11T04:12:35;14.50;99.90
40151;DHT22;25866;52.420;10.640;2022-08-11T04:15:18;14.40;99.90
40151;DHT22;25866;52.420;10.640;2022-08-11T04:23:49;14.60;99.90
40151;DHT22;25866;52.420;10.640;2022-08-11T04:41:17;14.80;99.90
40151;DHT22;25866;52.420;10.640;2022-08-11T04:49:34;14.80;99.90
40151;DHT22;25866;52.420;10.640;2022-08-11T04:56:27;14.90;99.90
40151;DHT22;25866;52.420;10.640;2022-08-11T04:59:51;14.90;99.90
40151;DHT22;25866;52.420;10.640;2022-08-11T05:06:01;15.10;99.90
40151;DHT22;25866;52.420;10.640;2022-08-11T05:11:47;15.20;99.90
40151;DHT22;25866;52.420;10.640;2022-08-11T05:14:28;15.20;99.90
40151;DHT22;25866;52.420;10.640;2022-08-11T05:17:25;15.30;99.90
40151;DHT22;25866;52.420;10.640;2022-08-11T05:20:11;15.30;99.90
40151;DHT22;25866;52.420;10.640;2022-08-11T05:23:03;15.40;99.90
40151;DHT22;25866;52.420;10.640;2022-08-11T05:25:52;15.40;99.90
40151;DHT22;25866;52.420;10.640;2022-08-11T05:29:02;15.50;99.90
40151;DHT22;25866;52.420;10.640;2022-08-11T05:31:50;15.60;99.90
40151;DHT22;25866;52.420;10.640;2022-08-11T05:34:44;15.60;99.90
40151;DHT22;25866;52.420;10.640;2022-08-11T05:37:32;15.70;99.90
40151;DHT22;25866;52.420;10.640;2022-08-11T05:40:11;15.70;99.90
40151;DHT22;25866;52.420;10.640;2022-08-11T05:43:01;15.80;99.90
40151;DHT22;25866;52.420;10.640;2022-08-11T05:46:02;15.90;99.90
40151;DHT22;25866;52.420;10.640;2022-08-11T05:48:47;16.00;99.90
40151;DHT22;25866;52.420;10.640;2022-08-11T05:51:34;16.00;99.90
40151;DHT22;25866;52.420;10.640;2022-08-11T05:54:19;16.10;99.90
40151;DHT22;25866;52.420;10.640;2022-08-11T05:57:05;16.20;99.90
40151;DHT22;25866;52.420;10.640;2022-08-11T05:59:32;16.30;99.90
40151;DHT22;25866;52.420;10.640;2022-08-11T06:02:06;16.40;99.90
40151;DHT22;25866;52.420;10.640;2022-08-11T06:04:33;16.50;99.90
40151;DHT22;25866;52.420;10.640;2022-08-11T06:07:10;16.50;99.90
40151;DHT22;25866;52.420;10.640;2022-08-11T06:09:47;16.60;99.90
40151;DHT22;25866;52.420;10.640;2022-08-11T06:12:29;16.70;99.90
40151;DHT22;25866;52.420;10.640;2022-08-11T06:15:05;16.80;99.90
40151;DHT22;25866;52.420;10.640;2022-08-11T06:17:35;16.80;99.90
40151;DHT22;25866;52.420;10.640;2022-08-11T06:20:09;17.00;99.90
40151;DHT22;25866;52.420;10.640;2022-08-11T06:22:41;17.00;99.90
40151;DHT22;25866;52.420;10.640;2022-08-11T06:25:09;17.20;99.90
40151;DHT22;25866;52.420;10.640;2022-08-11T06:27:37;17.30;99.90
40151;DHT22;25866;52.420;10.640;2022-08-11T06:30:05;17.40;99.90
40151;DHT22;25866;52.420;10.640;2022-08-11T06:32:43;17.50;99.90
40151;DHT22;25866;52.420;10.640;2022-08-11T06:40:58;17.80;99.90
40151;DHT22;25866;52.420;10.640;2022-08-11T06:43:51;17.90;99.90
40151;DHT22;25866;52.420;10.640;2022-08-11T06:46:31;18.10;99.90
40151;DHT22;25866;52.420;10.640;2022-08-11T06:49:00;18.20;99.90
40151;DHT22;25866;52.420;10.640;2022-08-11T06:51:27;18.30;99.90
40151;DHT22;25866;52.420;10.640;2022-08-11T06:53:54;18.40;99.90
40151;DHT22;25866;52.420;10.640;2022-08-11T06:56:33;18.60;99.90
40151;DHT22;25866;52.420;10.640;2022-08-11T06:59:18;18.60;99.90
40151;DHT22;25866;52.420;10.640;2022-08-11T07:02:30;18.70;99.90
40151;DHT22;25866;52.420;10.640;2022-08-11T07:05:21;18.90;99.90
40151;DHT22;25866;52.420;10.640;2022-08-11T07:15:01;19.40;99.90
40151;DHT22;25866;52.420;10.640;2022-08-11T07:17:51;19.60;99.40
40151;DHT22;25866;52.420;10.640;2022-08-11T07:20:38;19.70;98.90
40151;DHT22;25866;52.420;10.640;2022-08-11T07:23:24;19.80;98.60
40151;DHT22;25866;52.420;10.640;2022-08-11T07:26:10;20.00;98.20
40151;DHT22;25866;52.420;10.640;2022-08-11T07:28:55;20.20;98.30
40151;DHT22;25866;52.420;10.640;2022-08-11T07:31:36;20.30;97.70
40151;DHT22;25866;52.420;10.640;2022-08-11T07:34:15;20.50;97.20
40151;DHT22;25866;52.420;10.640;2022-08-11T07:36:56;20.60;97.30
40151;DHT22;25866;52.420;10.640;2022-08-11T07:39:32;20.90;97.20
40151;DHT22;25866;52.420;10.640;2022-08-11T07:41:59;21.00;96.80
40151;DHT22;25866;52.420;10.640;2022-08-11T07:44:29;21.20;96.90
40151;DHT22;25866;52.420;10.640;2022-08-11T07:47:03;21.30;96.40
40151;DHT22;25866;52.420;10.640;2022-08-11T07:49:48;21.40;96.00
40151;DHT22;25866;52.420;10.640;2022-08-11T07:52:35;21.60;95.40
40151;DHT22;25866;52.420;10.640;2022-08-11T07:55:13;21.70;95.70
40151;DHT22;25866;52.420;10.640;2022-08-11T07:57:53;21.80;94.60
40151;DHT22;25866;52.420;10.640;2022-08-11T08:00:53;22.00;94.70
40151;DHT22;25866;52.420;10.640;2022-08-11T08:03:39;22.10;94.80
40151;DHT22;25866;52.420;10.640;2022-08-11T08:06:28;22.20;94.20
40151;DHT22;25866;52.420;10.640;2022-08-11T08:09:15;22.40;94.10
40151;DHT22;25866;52.420;10.640;2022-08-11T08:12:03;22.50;93.90
40151;DHT22;25866;52.420;10.640;2022-08-11T08:14:50;22.70;94.50
40151;DHT22;25866;52.420;10.640;2022-08-11T08:17:35;22.80;94.00
40151;DHT22;25866;52.420;10.640;2022-08-11T08:20:20;22.90;92.90
40151;DHT22;25866;52.420;10.640;2022-08-11T08:22:54;23.10;93.40
40151;DHT22;25866;52.420;10.640;2022-08-11T08:25:34;23.20;93.00
40151;DHT22;25866;52.420;10.640;2022-08-11T08:28:15;23.40;93.10
40151;DHT22;25866;52.420;10.640;2022-08-11T08:30:42;23.50;92.20
40151;DHT22;25866;52.420;10.640;2022-08-11T08:33:27;23.70;91.70
40151;DHT22;25866;52.420;10.640;2022-08-11T08:35:58;23.70;91.40
40151;DHT22;25866;52.420;10.640;2022-08-11T08:38:52;23.80;91.10
40151;DHT22;25866;52.420;10.640;2022-08-11T08:41:27;24.00;90.40
40151;DHT22;25866;52.420;10.640;2022-08-11T08:44:00;24.20;90.50
40151;DHT22;25866;52.420;10.640;2022-08-11T08:46:35;24.30;90.70
40151;DHT22;25866;52.420;10.640;2022-08-11T08:49:03;24.50;90.50
40151;DHT22;25866;52.420;10.640;2022-08-11T08:51:33;24.60;89.00
40151;DHT22;25866;52.420;10.640;2022-08-11T08:54:37;24.70;88.70
40151;DHT22;25866;52.420;10.640;2022-08-11T08:57:04;24.90;88.40
40151;DHT22;25866;52.420;10.640;2022-08-11T08:59:35;25.00;87.70
40151;DHT22;25866;52.420;10.640;2022-08-11T09:02:04;25.00;86.90
40151;DHT22;25866;52.420;10.640;2022-08-11T09:04:31;25.10;87.00
40151;DHT22;25866;52.420;10.640;2022-08-11T09:07:07;25.20;87.10
40151;DHT22;25866;52.420;10.640;2022-08-11T09:09:33;25.40;85.50
40151;DHT22;25866;52.420;10.640;2022-08-11T09:12:01;25.40;85.50
40151;DHT22;25866;52.420;10.640;2022-08-11T09:14:35;25.60;85.20
40151;DHT22;25866;52.420;10.640;2022-08-11T09:17:21;25.70;82.70
40151;DHT22;25866;52.420;10.640;2022-08-11T09:19:50;25.70;80.60
40151;DHT22;25866;52.420;10.640;2022-08-11T09:22:35;25.80;82.50
40151;DHT22;25866;52.420;10.640;2022-08-11T09:25:21;25.90;82.60
40151;DHT22;25866;52.420;10.640;2022-08-11T09:28:12;26.00;81.50
40151;DHT22;25866;52.420;10.640;2022-08-11T09:30:48;26.10;82.80
40151;DHT22;25866;52.420;10.640;2022-08-11T09:33:21;26.30;81.00
40151;DHT22;25866;52.420;10.640;2022-08-11T09:35:50;26.40;80.40
40151;DHT22;25866;52.420;10.640;2022-08-11T09:38:19;26.40;81.00
40151;DHT22;25866;52.420;10.640;2022-08-11T09:41:05;26.60;81.80
40151;DHT22;25866;52.420;10.640;2022-08-11T09:43:34;26.80;80.70
40151;DHT22;25866;52.420;10.640;2022-08-11T09:46:23;26.80;81.00
40151;DHT22;25866;52.420;10.640;2022-08-11T09:48:52;27.00;79.80
40151;DHT22;25866;52.420;10.640;2022-08-11T09:51:22;27.10;79.90
40151;DHT22;25866;52.420;10.640;2022-08-11T09:53:49;27.20;77.70
40151;DHT22;25866;52.420;10.640;2022-08-11T09:56:20;27.30;78.10
40151;DHT22;25866;52.420;10.640;2022-08-11T09:59:06;27.30;77.60
40151;DHT22;25866;52.420;10.640;2022-08-11T10:01:47;27.40;76.80
40151;DHT22;25866;52.420;10.640;2022-08-11T10:04:16;27.40;77.00
40151;DHT22;25866;52.420;10.640;2022-08-11T10:06:44;27.50;75.70
40151;DHT22;25866;52.420;10.640;2022-08-11T10:09:39;27.50;72.90
40151;DHT22;25866;52.420;10.640;2022-08-11T10:12:21;27.60;75.30
40151;DHT22;25866;52.420;10.640;2022-08-11T10:14:53;27.70;75.90
40151;DHT22;25866;52.420;10.640;2022-08-11T10:17:42;27.80;75.20
40151;DHT22;25866;52.420;10.640;2022-08-11T10:20:31;27.80;73.50
40151;DHT22;25866;52.420;10.640;2022-08-11T10:22:58;27.90;70.10
40151;DHT22;25866;52.420;10.640;2022-08-11T10:25:54;28.00;71.00
40151;DHT22;25866;52.420;10.640;2022-08-11T10:28:40;28.10;71.40
40151;DHT22;25866;52.420;10.640;2022-08-11T10:31:07;28.20;71.90
40151;DHT22;25866;52.420;10.640;2022-08-11T10:33:53;28.20;68.30
40151;DHT22;25866;52.420;10.640;2022-08-11T10:36:34;28.40;71.60
40151;DHT22;25866;52.420;10.640;2022-08-11T10:39:04;28.40;69.80
40151;DHT22;25866;52.420;10.640;2022-08-11T10:41:31;28.40;67.90
40151;DHT22;25866;52.420;10.640;2022-08-11T10:44:17;28.50;67.40
40151;DHT22;25866;52.420;10.640;2022-08-11T10:46:45;28.60;66.20
40151;DHT22;25866;52.420;10.640;2022-08-11T10:49:31;28.60;66.60
40151;DHT22;25866;52.420;10.640;2022-08-11T10:51:58;28.60;66.80
40151;DHT22;25866;52.420;10.640;2022-08-11T10:54:43;28.70;66.50
40151;DHT22;25866;52.420;10.640;2022-08-11T10:57:29;28.70;67.90
40151;DHT22;25866;52.420;10.640;2022-08-11T11:00:14;28.80;66.40
40151;DHT22;25866;52.420;10.640;2022-08-11T11:02:44;28.80;67.20
40151;DHT22;25866;52.420;10.640;2022-08-11T11:05:23;28.80;67.40
40151;DHT22;25866;52.420;10.640;2022-08-11T11:08:19;28.80;65.80
40151;DHT22;25866;52.420;10.640;2022-08-11T11:11:06;28.90;66.70
40151;DHT22;25866;52.420;10.640;2022-08-11T11:13:35;28.90;65.50
40151;DHT22;25866;52.420;10.640;2022-08-11T11:16:21;28.90;67.30
40151;DHT22;25866;52.420;10.640;2022-08-11T11:19:08;28.90;66.20
40151;DHT22;25866;52.420;10.640;2022-08-11T11:21:35;29.00;66.20
40151;DHT22;25866;52.420;10.640;2022-08-11T11:27:54;29.10;65.20
40151;DHT22;25866;52.420;10.640;2022-08-11T11:30:18;29.20;65.00
40151;DHT22;25866;52.420;10.640;2022-08-11T11:35:51;29.20;65.60
40151;DHT22;25866;52.420;10.640;2022-08-11T11:38:21;29.40;63.80
40151;DHT22;25866;52.420;10.640;2022-08-11T11:40:47;29.50;65.70
40151;DHT22;25866;52.420;10.640;2022-08-11T11:43:34;29.50;64.30
40151;DHT22;25866;52.420;10.640;2022-08-11T11:46:01;29.60;64.70
40151;DHT22;25866;52.420;10.640;2022-08-11T11:48:28;29.50;62.40
40151;DHT22;25866;52.420;10.640;2022-08-11T11:50:55;29.60;63.90
40151;DHT22;25866;52.420;10.640;2022-08-11T11:53:21;29.50;62.60
40151;DHT22;25866;52.420;10.640;2022-08-11T11:55:47;29.50;63.30
40151;DHT22;25866;52.420;10.640;2022-08-11T11:58:13;29.50;62.90
40151;DHT22;25866;52.420;10.640;2022-08-11T12:00:58;29.50;63.80
40151;DHT22;25866;52.420;10.640;2022-08-11T12:03:50;29.50;64.90
40151;DHT22;25866;52.420;10.640;2022-08-11T12:06:19;29.70;65.00
40151;DHT22;25866;52.420;10.640;2022-08-11T12:08:49;29.70;62.50
40151;DHT22;25866;52.420;10.640;2022-08-11T12:11:16;29.80;65.30
40151;DHT22;25866;52.420;10.640;2022-08-11T12:14:04;30.00;64.20
40151;DHT22;25866;52.420;10.640;2022-08-11T12:16:31;30.00;63.80
40151;DHT22;25866;52.420;10.640;2022-08-11T12:19:00;30.10;62.70
40151;DHT22;25866;52.420;10.640;2022-08-11T12:21:28;30.00;62.00
40151;DHT22;25866;52.420;10.640;2022-08-11T12:24:00;30.10;64.20
40151;DHT22;25866;52.420;10.640;2022-08-11T12:26:44;30.20;63.70
40151;DHT22;25866;52.420;10.640;2022-08-11T12:29:17;30.30;63.00
40151;DHT22;25866;52.420;10.640;2022-08-11T12:31:45;30.40;62.30
40151;DHT22;25866;52.420;10.640;2022-08-11T12:34:14;30.40;63.30
40151;DHT22;25866;52.420;10.640;2022-08-11T12:36:57;30.40;62.80
40151;DHT22;25866;52.420;10.640;2022-08-11T12:39:27;30.50;61.60
40151;DHT22;25866;52.420;10.640;2022-08-11T12:42:16;30.60;61.90
40151;DHT22;25866;52.420;10.640;2022-08-11T12:45:01;30.60;61.50
40151;DHT22;25866;52.420;10.640;2022-08-11T12:47:50;30.60;62.80
40151;DHT22;25866;52.420;10.640;2022-08-11T12:50:35;30.50;62.30
40151;DHT22;25866;52.420;10.640;2022-08-11T12:53:44;30.50;62.50
40151;DHT22;25866;52.420;10.640;2022-08-11T12:56:11;30.60;62.60
40151;DHT22;25866;52.420;10.640;2022-08-11T12:58:57;30.70;62.90
40151;DHT22;25866;52.420;10.640;2022-08-11T13:01:43;30.80;61.80
40151;DHT22;25866;52.420;10.640;2022-08-11T13:04:28;30.90;63.00
40151;DHT22;25866;52.420;10.640;2022-08-11T13:07:14;31.00;62.70
40151;DHT22;25866;52.420;10.640;2022-08-11T13:09:42;31.10;60.70
40151;DHT22;25866;52.420;10.640;2022-08-11T13:12:08;31.20;62.10
40151;DHT22;25866;52.420;10.640;2022-08-11T13:14:53;31.20;61.10
40151;DHT22;25866;52.420;10.640;2022-08-11T13:17:20;31.00;59.80
40151;DHT22;25866;52.420;10.640;2022-08-11T13:19:49;30.90;59.20
40151;DHT22;25866;52.420;10.640;2022-08-11T13:22:20;30.90;59.60
40151;DHT22;25866;52.420;10.640;2022-08-11T13:24:48;30.90;59.50
40151;DHT22;25866;52.420;10.640;2022-08-11T13:27:15;31.10;59.50
40151;DHT22;25866;52.420;10.640;2022-08-11T13:29:43;31.20;58.50
40151;DHT22;25866;52.420;10.640;2022-08-11T13:32:12;31.20;59.00
40151;DHT22;25866;52.420;10.640;2022-08-11T13:34:39;31.20;58.40
40151;DHT22;25866;52.420;10.640;2022-08-11T13:37:09;31.30;58.40
40151;DHT22;25866;52.420;10.640;2022-08-11T13:39:36;31.30;58.30
40151;DHT22;25866;52.420;10.640;2022-08-11T13:42:04;31.30;56.90
40151;DHT22;25866;52.420;10.640;2022-08-11T13:44:34;31.40;57.60
40151;DHT22;25866;52.420;10.640;2022-08-11T13:47:02;31.30;56.20
40151;DHT22;25866;52.420;10.640;2022-08-11T13:49:35;31.30;57.40
40151;DHT22;25866;52.420;10.640;2022-08-11T13:52:02;31.40;57.50
40151;DHT22;25866;52.420;10.640;2022-08-11T13:54:34;31.40;58.10
40151;DHT22;25866;52.420;10.640;2022-08-11T13:57:05;31.10;56.70
40151;DHT22;25866;52.420;10.640;2022-08-11T13:59:31;31.10;56.80
40151;DHT22;25866;52.420;10.640;2022-08-11T14:02:07;31.20;57.70
40151;DHT22;25866;52.420;10.640;2022-08-11T14:05:02;31.10;57.90
40151;DHT22;25866;52.420;10.640;2022-08-11T14:07:33;31.20;57.90
40151;DHT22;25866;52.420;10.640;2022-08-11T14:10:00;31.30;57.80
40151;DHT22;25866;52.420;10.640;2022-08-11T14:12:29;31.40;56.80
40151;DHT22;25866;52.420;10.640;2022-08-11T14:15:22;31.40;57.20
40151;DHT22;25866;52.420;10.640;2022-08-11T14:18:01;31.40;57.80
40151;DHT22;25866;52.420;10.640;2022-08-11T14:20:32;31.30;57.90
40151;DHT22;25866;52.420;10.640;2022-08-11T14:23:17;31.40;57.80
40151;DHT22;25866;52.420;10.640;2022-08-11T14:25:44;31.40;57.90
40151;DHT22;25866;52.420;10.640;2022-08-11T14:28:32;31.30;57.30
40151;DHT22;25866;52.420;10.640;2022-08-11T14:30:59;31.30;55.40
40151;DHT22;25866;52.420;10.640;2022-08-11T14:33:25;31.30;57.10
40151;DHT22;25866;52.420;10.640;2022-08-11T14:35:51;31.20;55.40
40151;DHT22;25866;52.420;10.640;2022-08-11T14:38:17;31.20;56.20
40151;DHT22;25866;52.420;10.640;2022-08-11T14:40:45;31.20;57.50
40151;DHT22;25866;52.420;10.640;2022-08-11T14:43:30;31.20;57.20
40151;DHT22;25866;52.420;10.640;2022-08-11T14:46:15;31.20;57.70
40151;DHT22;25866;52.420;10.640;2022-08-11T14:49:00;31.10;57.70
40151;DHT22;25866;52.420;10.640;2022-08-11T14:51:26;31.00;57.10
40151;DHT22;25866;52.420;10.640;2022-08-11T14:53:52;30.90;56.20
40151;DHT22;25866;52.420;10.640;2022-08-11T14:56:38;30.80;56.30
40151;DHT22;25866;52.420;10.640;2022-08-11T14:59:05;30.80;57.70
40151;DHT22;25866;52.420;10.640;2022-08-11T15:01:32;30.70;57.50
40151;DHT22;25866;52.420;10.640;2022-08-11T15:04:24;30.60;56.90
40151;DHT22;25866;52.420;10.640;2022-08-11T15:06:50;30.60;57.80
40151;DHT22;25866;52.420;10.640;2022-08-11T15:09:17;30.60;58.00
40151;DHT22;25866;52.420;10.640;2022-08-11T15:11:43;30.50;57.90
40151;DHT22;25866;52.420;10.640;2022-08-11T15:14:27;30.50;57.10
40151;DHT22;25866;52.420;10.640;2022-08-11T15:17:14;30.40;58.60
40151;DHT22;25866;52.420;10.640;2022-08-11T15:19:43;30.40;58.30
40151;DHT22;25866;52.420;10.640;2022-08-11T15:22:28;30.30;56.50
40151;DHT22;25866;52.420;10.640;2022-08-11T15:25:13;30.30;57.70
40151;DHT22;25866;52.420;10.640;2022-08-11T15:27:40;30.30;57.70
40151;DHT22;25866;52.420;10.640;2022-08-11T15:30:25;30.20;56.10
40151;DHT22;25866;52.420;10.640;2022-08-11T15:33:12;30.20;56.80
40151;DHT22;25866;52.420;10.640;2022-08-11T15:36:00;30.10;57.10
40151;DHT22;25866;52.420;10.640;2022-08-11T15:38:50;30.00;58.30
40151;DHT22;25866;52.420;10.640;2022-08-11T15:41:18;29.90;57.30
40151;DHT22;25866;52.420;10.640;2022-08-11T15:44:10;29.80;56.40
40151;DHT22;25866;52.420;10.640;2022-08-11T15:46:57;29.80;57.80
40151;DHT22;25866;52.420;10.640;2022-08-11T15:49:31;29.70;57.80
40151;DHT22;25866;52.420;10.640;2022-08-11T15:52:20;29.60;57.20
40151;DHT22;25866;52.420;10.640;2022-08-11T15:54:46;29.60;57.50
40151;DHT22;25866;52.420;10.640;2022-08-11T15:57:14;29.60;57.80
40151;DHT22;25866;52.420;10.640;2022-08-11T16:00:05;29.60;58.10
40151;DHT22;25866;52.420;10.640;2022-08-11T16:02:51;29.50;57.90
40151;DHT22;25866;52.420;10.640;2022-08-11T16:05:22;29.40;58.70
40151;DHT22;25866;52.420;10.640;2022-08-11T16:07:51;29.40;58.20
40151;DHT22;25866;52.420;10.640;2022-08-11T16:10:19;29.30;58.00
40151;DHT22;25866;52.420;10.640;2022-08-11T16:13:02;29.20;58.10
40151;DHT22;25866;52.420;10.640;2022-08-11T16:15:36;29.20;58.60
40151;DHT22;25866;52.420;10.640;2022-08-11T16:18:24;29.20;59.30
40151;DHT22;25866;52.420;10.640;2022-08-11T16:21:13;29.10;58.40
40151;DHT22;25866;52.420;10.640;2022-08-11T16:23:44;29.10;59.10
40151;DHT22;25866;52.420;10.640;2022-08-11T16:26:10;29.00;58.90
40151;DHT22;25866;52.420;10.640;2022-08-11T16:28:39;28.90;58.60
40151;DHT22;25866;52.420;10.640;2022-08-11T16:31:06;28.90;58.80
40151;DHT22;25866;52.420;10.640;2022-08-11T16:33:40;28.80;59.10
40151;DHT22;25866;52.420;10.640;2022-08-11T16:36:10;28.90;57.70
40151;DHT22;25866;52.420;10.640;2022-08-11T16:38:56;28.90;58.20
40151;DHT22;25866;52.420;10.640;2022-08-11T16:41:24;28.80;59.00
40151;DHT22;25866;52.420;10.640;2022-08-11T16:44:13;28.80;59.00
40151;DHT22;25866;52.420;10.640;2022-08-11T16:46:59;28.80;58.90
40151;DHT22;25866;52.420;10.640;2022-08-11T16:49:42;28.70;58.90
40151;DHT22;25866;52.420;10.640;2022-08-11T16:52:11;28.70;58.70
40151;DHT22;25866;52.420;10.640;2022-08-11T16:54:38;28.70;58.90
40151;DHT22;25866;52.420;10.640;2022-08-11T16:57:14;28.70;59.10
40151;DHT22;25866;52.420;10.640;2022-08-11T17:00:03;28.60;59.10
40151;DHT22;25866;52.420;10.640;2022-08-11T17:02:34;28.60;58.90
40151;DHT22;25866;52.420;10.640;2022-08-11T17:05:22;28.50;58.80
40151;DHT22;25866;52.420;10.640;2022-08-11T17:08:07;28.50;59.20
40151;DHT22;25866;52.420;10.640;2022-08-11T17:10:59;28.40;58.90
40151;DHT22;25866;52.420;10.640;2022-08-11T17:14:00;28.30;59.80
40151;DHT22;25866;52.420;10.640;2022-08-11T17:16:34;28.20;59.40
40151;DHT22;25866;52.420;10.640;2022-08-11T17:19:10;28.20;60.40
40151;DHT22;25866;52.420;10.640;2022-08-11T17:21:44;28.20;59.90
40151;DHT22;25866;52.420;10.640;2022-08-11T17:24:34;28.20;60.20
40151;DHT22;25866;52.420;10.640;2022-08-11T17:27:01;28.10;60.10
40151;DHT22;25866;52.420;10.640;2022-08-11T17:29:57;28.00;59.40
40151;DHT22;25866;52.420;10.640;2022-08-11T17:32:33;28.00;58.20
40151;DHT22;25866;52.420;10.640;2022-08-11T17:35:20;28.00;60.30
40151;DHT22;25866;52.420;10.640;2022-08-11T17:40:29;27.80;59.70
40151;DHT22;25866;52.420;10.640;2022-08-11T17:42:56;27.70;59.80
40151;DHT22;25866;52.420;10.640;2022-08-11T17:45:43;27.70;60.70
40151;DHT22;25866;52.420;10.640;2022-08-11T17:48:30;27.60;60.70
40151;DHT22;25866;52.420;10.640;2022-08-11T17:53:29;27.60;60.50
40151;DHT22;25866;52.420;10.640;2022-08-11T17:56:15;27.50;61.60
40151;DHT22;25866;52.420;10.640;2022-08-11T17:59:01;27.50;61.90
40151;DHT22;25866;52.420;10.640;2022-08-11T18:01:47;27.40;61.30
40151;DHT22;25866;52.420;10.640;2022-08-11T18:04:15;27.30;61.70
40151;DHT22;25866;52.420;10.640;2022-08-11T18:06:42;27.30;61.60
40151;DHT22;25866;52.420;10.640;2022-08-11T18:09:15;27.20;61.10
40151;DHT22;25866;52.420;10.640;2022-08-11T18:12:01;27.20;61.10
40151;DHT22;25866;52.420;10.640;2022-08-11T18:14:48;27.10;62.30
40151;DHT22;25866;52.420;10.640;2022-08-11T18:17:34;27.10;63.00
40151;DHT22;25866;52.420;10.640;2022-08-11T18:20:19;27.00;62.40
40151;DHT22;25866;52.420;10.640;2022-08-11T18:23:08;26.90;61.90
40151;DHT22;25866;52.420;10.640;2022-08-11T18:25:54;26.90;62.30
40151;DHT22;25866;52.420;10.640;2022-08-11T18:28:46;26.80;61.90
40151;DHT22;25866;52.420;10.640;2022-08-11T18:31:36;26.70;63.30
40151;DHT22;25866;52.420;10.640;2022-08-11T18:34:31;26.60;62.90
40151;DHT22;25866;52.420;10.640;2022-08-11T18:37:20;26.60;63.50
40151;DHT22;25866;52.420;10.640;2022-08-11T18:40:09;26.50;63.20
40151;DHT22;25866;52.420;10.640;2022-08-11T18:42:59;26.40;64.10
40151;DHT22;25866;52.420;10.640;2022-08-11T18:45:46;26.40;64.90
40151;DHT22;25866;52.420;10.640;2022-08-11T18:48:35;26.30;65.00
40151;DHT22;25866;52.420;10.640;2022-08-11T18:51:21;26.20;64.60
40151;DHT22;25866;52.420;10.640;2022-08-11T18:54:09;26.10;64.80
40151;DHT22;25866;52.420;10.640;2022-08-11T18:56:58;26.10;65.20
40151;DHT22;25866;52.420;10.640;2022-08-11T18:59:45;26.00;64.20
40151;DHT22;25866;52.420;10.640;2022-08-11T19:02:31;25.90;64.40
40151;DHT22;25866;52.420;10.640;2022-08-11T19:05:18;25.90;65.30
40151;DHT22;25866;52.420;10.640;2022-08-11T19:08:05;25.70;65.50
40151;DHT22;25866;52.420;10.640;2022-08-11T19:10:51;25.70;67.00
40151;DHT22;25866;52.420;10.640;2022-08-11T19:13:37;25.70;66.60
40151;DHT22;25866;52.420;10.640;2022-08-11T19:16:23;25.60;66.90
40151;DHT22;25866;52.420;10.640;2022-08-11T19:19:08;25.50;67.20
40151;DHT22;25866;52.420;10.640;2022-08-11T19:21:54;25.50;66.80